Time;durP1;ratioP1;P1;durP2;ratioP2;P2;SDS_P1;SDS_P2;PMS_P1;PMS_P2;Temp;Humidity;BMP_temperature;BMP_pressure;BME280_temperature;BME280_humidity;BME280_pressure;Samples;Min_cycle;Max_cycle;Signal;HPM_P1;HPM_P2
2023/09/26 00:00:23;;;;;;;12.90;7.90;;;;;;;15.67;100.00;102070.63;5072595;28;20044;-67
2023/09/26 00:03:12;;;;;;;10.80;6.43;;;;;;;15.68;100.00;102080.53;5061552;28;20040;-68
2023/09/26 00:06:00;;;;;;;13.82;7.38;;;;;;;15.71;100.00;102076.44;5057222;28;20055;-66
2023/09/26 00:08:49;;;;;;;12.70;7.50;;;;;;;15.65;100.00;102078.31;5073285;28;20036;-66
2023/09/26 00:11:38;;;;;;;12.93;7.90;;;;;;;15.62;100.00;102069.78;5071320;28;20156;-66
2023/09/26 00:14:27;;;;;;;13.25;8.32;;;;;;;15.57;100.00;102064.28;5059453;28;20105;-66
2023/09/26 00:17:17;;;;;;;15.73;7.88;;;;;;;15.50;100.00;102062.59;5070101;28;20109;-67
2023/09/26 00:20:39;;;;;;;14.10;7.18;;;;;;;15.46;100.00;102056.00;5056569;28;20496;-67
2023/09/26 00:23:20;;;;;;;13.10;7.47;;;;;;;15.42;100.00;102065.06;5073203;28;20045;-66
2023/09/26 00:26:08;;;;;;;12.13;7.90;;;;;;;15.37;100.00;102059.53;5072729;28;20127;-66
2023/09/26 00:29:01;;;;;;;12.77;7.00;;;;;;;15.33;100.00;102059.28;5057443;28;20036;-66
2023/09/26 00:31:53;;;;;;;11.00;7.05;;;;;;;15.32;100.00;102065.84;5045841;28;20052;-66
2023/09/26 00:34:42;;;;;;;11.05;6.72;;;;;;;15.30;100.00;102066.13;5081309;28;20055;-66
2023/09/26 00:37:31;;;;;;;13.07;7.20;;;;;;;15.29;100.00;102066.38;5091042;28;20162;-67
2023/09/26 00:40:22;;;;;;;14.27;6.78;;;;;;;15.28;100.00;102068.31;5056895;28;20048;-67
2023/09/26 00:43:21;;;;;;;11.02;6.63;;;;;;;15.30;100.00;102068.06;5048931;28;20052;-67
2023/09/26 00:46:11;;;;;;;12.77;7.22;;;;;;;15.28;100.00;102073.00;5075233;28;20504;-67
2023/09/26 00:49:00;;;;;;;12.05;6.05;;;;;;;15.26;100.00;102062.25;5056972;28;20040;-67
2023/09/26 00:51:48;;;;;;;13.30;7.13;;;;;;;15.26;100.00;102061.44;5033276;28;20051;-67
2023/09/26 00:54:36;;;;;;;9.75;6.03;;;;;;;15.29;100.00;102067.22;5074525;28;20056;-67
2023/09/26 00:57:24;;;;;;;12.27;5.85;;;;;;;15.31;100.00;102066.94;5059080;28;20056;-67
2023/09/26 01:00:15;;;;;;;14.05;6.60;;;;;;;15.32;100.00;102074.06;5071901;28;20133;-67
2023/09/26 01:03:04;;;;;;;11.75;6.90;;;;;;;15.28;100.00;102065.56;5059636;28;20060;-67
2023/09/26 01:05:52;;;;;;;12.30;6.43;;;;;;;15.25;100.00;102068.88;5057599;28;20088;-67
2023/09/26 01:08:40;;;;;;;12.48;5.75;;;;;;;15.22;100.00;102058.41;5044345;28;20076;-67
2023/09/26 01:11:29;;;;;;;12.23;6.80;;;;;;;15.18;100.00;102043.56;5040852;28;20500;-67
2023/09/26 01:14:17;;;;;;;12.68;6.95;;;;;;;15.17;100.00;102050.16;5062049;28;20454;-66
2023/09/26 01:17:04;;;;;;;10.82;5.70;;;;;;;15.12;100.00;102047.38;5060287;28;20047;-66
2023/09/26 01:19:53;;;;;;;11.68;6.70;;;;;;;15.07;100.00;102041.88;5046882;28;20500;-66
2023/09/26 01:22:45;;;;;;;10.98;5.97;;;;;;;15.05;100.00;102041.31;5046021;28;20076;-66
2023/09/26 01:25:35;;;;;;;11.10;6.10;;;;;;;15.03;100.00;102046.25;5042438;28;20049;-68
2023/09/26 01:28:23;;;;;;;9.43;6.05;;;;;;;15.01;100.00;102038.28;5046995;28;20055;-67
2023/09/26 01:31:11;;;;;;;10.85;6.18;;;;;;;14.98;100.00;102036.06;5059339;28;20058;-66
2023/09/26 01:33:59;;;;;;;9.73;5.93;;;;;;;15.00;100.00;102039.38;5058765;28;20048;-67
2023/09/26 01:36:48;;;;;;;10.25;6.00;;;;;;;15.03;100.00;102040.75;5062404;28;20045;-67
2023/09/26 01:39:36;;;;;;;9.18;5.47;;;;;;;15.04;100.00;102045.97;5014959;28;20506;-66
2023/09/26 01:42:24;;;;;;;9.32;5.90;;;;;;;15.03;100.00;102049.84;5052441;28;20056;-66
2023/09/26 01:45:12;;;;;;;11.63;5.93;;;;;;;15.04;100.00;102050.66;5045096;28;20049;-66
2023/09/26 01:48:01;;;;;;;9.55;5.38;;;;;;;15.04;100.00;102062.44;5033837;28;20044;-66
2023/09/26 01:50:49;;;;;;;9.63;5.80;;;;;;;15.06;100.00;102062.19;5074987;28;20040;-66
2023/09/26 01:53:37;;;;;;;12.90;5.57;;;;;;;15.07;100.00;102055.59;5059335;28;20048;-66
2023/09/26 01:56:25;;;;;;;9.32;5.68;;;;;;;15.05;100.00;102046.81;5058964;28;20417;-67
2023/09/26 01:59:13;;;;;;;11.98;6.07;;;;;;;15.04;100.00;102039.69;5060541;28;20174;-66
2023/09/26 02:02:05;;;;;;;11.52;6.15;;;;;;;15.00;100.00;102044.84;5047149;28;20044;-66
2023/09/26 02:04:53;;;;;;;10.35;6.00;;;;;;;14.95;100.00;102036.59;5058326;28;20150;-66
2023/09/26 02:07:41;;;;;;;10.90;5.63;;;;;;;14.91;100.00;102038.22;5058629;28;20083;-66
2023/09/26 02:10:29;;;;;;;12.18;5.90;;;;;;;14.88;100.00;102036.84;5061407;28;20435;-67
2023/09/26 02:13:17;;;;;;;8.75;5.25;;;;;;;14.87;100.00;102032.47;5044127;28;20170;-67
2023/09/26 02:16:13;;;;;;;8.02;5.30;;;;;;;14.90;100.00;102031.09;5075533;28;20446;-67
2023/09/26 02:19:01;;;;;;;11.38;6.28;;;;;;;14.88;100.00;102031.34;5041672;28;20464;-67
2023/09/26 02:21:49;;;;;;;9.52;5.72;;;;;;;14.84;100.00;102030.25;5060947;28;20052;-67
2023/09/26 02:24:37;;;;;;;8.70;5.50;;;;;;;14.84;100.00;102023.91;5081701;28;20074;-67
2023/09/26 02:27:25;;;;;;;9.70;5.80;;;;;;;14.88;100.00;102023.13;5074596;28;20121;-67
2023/09/26 02:30:20;;;;;;;10.95;5.97;;;;;;;14.89;100.00;102033.03;5060556;28;20049;-67
2023/09/26 02:33:08;;;;;;;10.57;5.65;;;;;;;14.88;100.00;102023.13;5044654;28;20048;-67
2023/09/26 02:35:56;;;;;;;11.18;6.15;;;;;;;14.88;100.00;102025.03;5070541;28;20044;-67
2023/09/26 02:38:45;;;;;;;10.25;6.53;;;;;;;14.85;100.00;102031.91;5060242;28;20114;-67
2023/09/26 02:41:33;;;;;;;10.20;5.88;;;;;;;14.83;100.00;102023.09;5072933;28;20048;-67
2023/09/26 02:44:21;;;;;;;9.02;5.45;;;;;;;14.84;100.00;102022.03;5030646;28;20187;-67
2023/09/26 02:47:09;;;;;;;10.30;5.70;;;;;;;14.85;100.00;102015.44;5058896;28;20098;-67
2023/09/26 02:49:56;;;;;;;9.85;5.85;;;;;;;14.85;100.00;102020.94;5057217;28;20098;-67
2023/09/26 02:52:44;;;;;;;10.93;5.60;;;;;;;14.84;100.00;102013.78;5058185;28;20072;-67
2023/09/26 02:55:33;;;;;;;11.77;6.07;;;;;;;14.78;100.00;102001.13;5076813;28;20044;-66
2023/09/26 02:58:22;;;;;;;11.88;5.57;;;;;;;14.76;100.00;102000.56;5058016;28;20056;-67
2023/09/26 03:01:19;;;;;;;10.85;5.88;;;;;;;14.72;100.00;101994.00;5074282;28;20492;-66
2023/09/26 03:04:07;;;;;;;13.20;6.30;;;;;;;14.65;100.00;101994.22;5073658;28;20502;-67
2023/09/26 03:06:55;;;;;;;11.57;5.88;;;;;;;14.60;100.00;101993.34;5041283;28;20056;-66
2023/09/26 03:09:43;;;;;;;8.75;5.90;;;;;;;14.58;100.00;101990.06;5043834;28;20511;-67
2023/09/26 03:12:31;;;;;;;9.82;5.85;;;;;;;14.57;100.00;101985.66;5044928;28;20062;-66
2023/09/26 03:15:19;;;;;;;9.88;5.82;;;;;;;14.57;100.00;101980.19;5090429;28;20055;-66
2023/09/26 03:18:07;;;;;;;10.40;6.10;;;;;;;14.57;100.00;101974.69;5083438;28;20041;-66
2023/09/26 03:20:56;;;;;;;11.25;6.25;;;;;;;14.55;100.00;101971.38;5058773;28;20044;-66
2023/09/26 03:23:44;;;;;;;11.02;5.60;;;;;;;14.53;100.00;101979.03;5072763;28;20163;-66
2023/09/26 03:26:32;;;;;;;9.23;5.63;;;;;;;14.53;100.00;101979.03;5052760;28;20128;-67
2023/09/26 03:29:20;;;;;;;10.05;5.93;;;;;;;14.53;100.00;101979.88;5053030;28;20037;-66
2023/09/26 03:32:10;;;;;;;9.70;5.60;;;;;;;14.52;100.00;101978.19;5055744;28;20052;-66
2023/09/26 03:34:58;;;;;;;10.40;5.65;;;;;;;14.53;100.00;101974.38;5088180;28;20044;-66
2023/09/26 03:37:46;;;;;;;9.95;5.57;;;;;;;14.59;100.00;101978.00;5068358;28;20055;-66
2023/09/26 03:40:34;;;;;;;9.15;5.53;;;;;;;14.60;100.00;101980.50;5037520;28;20183;-66
2023/09/26 03:43:22;;;;;;;10.48;5.50;;;;;;;14.63;100.00;101979.13;5040302;28;20049;-66
2023/09/26 03:46:10;;;;;;;10.80;5.53;;;;;;;14.66;100.00;101979.41;5060686;28;20064;-66
2023/09/26 03:48:58;;;;;;;11.82;6.10;;;;;;;14.66;100.00;101976.66;5070809;28;20053;-66
2023/09/26 03:51:46;;;;;;;9.98;5.75;;;;;;;14.64;100.00;101986.25;5057012;28;20063;-66
2023/09/26 03:54:35;;;;;;;10.38;6.07;;;;;;;14.62;100.00;101985.69;5072252;28;20170;-66
2023/09/26 03:57:23;;;;;;;10.98;5.68;;;;;;;14.56;100.00;101981.28;5072060;28;20079;-66
2023/09/26 04:00:16;;;;;;;10.25;6.10;;;;;;;14.47;100.00;101975.44;5070662;28;20052;-66
2023/09/26 04:03:05;;;;;;;9.70;5.90;;;;;;;14.45;100.00;101977.63;5055396;28;20049;-67
2023/09/26 04:05:56;;;;;;;11.63;5.63;;;;;;;14.47;100.00;101970.78;5050540;28;20408;-66
2023/09/26 04:08:45;;;;;;;9.68;5.65;;;;;;;14.52;100.00;101974.63;5056261;28;20045;-66
2023/09/26 04:11:33;;;;;;;10.57;5.32;;;;;;;14.55;100.00;101976.88;5055121;28;20497;-66
2023/09/26 04:14:21;;;;;;;13.30;6.30;;;;;;;14.54;100.00;101967.00;5071202;28;20394;-65
2023/09/26 04:17:09;;;;;;;17.23;6.32;;;;;;;14.45;100.00;101967.47;5070815;28;20079;-66
2023/09/26 04:19:57;;;;;;;10.73;5.90;;;;;;;14.37;100.00;101972.66;5041145;28;20052;-66
2023/09/26 04:22:47;;;;;;;10.40;5.68;;;;;;;14.29;100.00;101979.47;5056452;28;20044;-66
2023/09/26 04:25:35;;;;;;;12.23;5.57;;;;;;;14.26;100.00;101985.44;5052094;28;20126;-67
2023/09/26 04:28:23;;;;;;;11.40;5.80;;;;;;;14.26;100.00;101985.44;5050603;28;20128;-67
2023/09/26 04:31:19;;;;;;;11.30;5.60;;;;;;;14.24;100.00;101976.69;5034824;28;20055;-66
2023/09/26 04:34:07;;;;;;;;;;;;;;;14.23;100.00;101977.75;5076047;28;20052;-66
2023/09/26 04:36:55;;;;;;;11.52;6.15;;;;;;;14.23;100.00;101969.53;5071584;28;19974;-67
2023/09/26 04:39:43;;;;;;;9.98;5.45;;;;;;;14.22;100.00;101951.44;5051979;28;20049;-67
2023/09/26 04:42:31;;;;;;;11.63;5.32;;;;;;;14.22;100.00;101951.44;5057529;28;20052;-67
2023/09/26 04:45:19;;;;;;;13.30;6.05;;;;;;;14.18;100.00;101947.56;5042705;28;20133;-66
2023/09/26 04:48:07;;;;;;;15.18;6.05;;;;;;;14.11;100.00;101955.22;5096671;28;20477;-66
2023/09/26 04:50:56;;;;;;;11.80;5.78;;;;;;;14.09;100.00;101943.69;5076547;28;20484;-67
2023/09/26 04:53:44;;;;;;;13.68;5.47;;;;;;;14.12;100.00;101948.63;5071318;28;20546;-66
2023/09/26 04:56:32;;;;;;;11.73;6.15;;;;;;;14.13;100.00;101953.03;5090959;28;20056;-68
2023/09/26 04:59:20;;;;;;;11.05;6.38;;;;;;;14.16;100.00;101952.50;5055109;28;20055;-67
2023/09/26 05:02:08;;;;;;;11.80;6.47;;;;;;;14.17;100.00;101948.69;5051697;28;20119;-67
2023/09/26 05:04:56;;;;;;;14.07;6.65;;;;;;;14.15;100.00;101943.44;5057110;28;20505;-66
2023/09/26 05:07:44;;;;;;;11.85;6.43;;;;;;;14.11;100.00;101944.25;5075725;28;20060;-67
2023/09/26 05:10:37;;;;;;;11.77;6.22;;;;;;;14.05;100.00;101936.00;5059998;28;20052;-67
2023/09/26 05:13:25;;;;;;;16.88;6.60;;;;;;;14.02;100.00;101936.53;5033063;28;20058;-66
2023/09/26 05:16:15;;;;;;;13.55;6.50;;;;;;;14.04;100.00;101938.97;5062351;28;20056;-66
2023/09/26 05:19:04;;;;;;;12.80;6.40;;;;;;;14.08;100.00;101937.38;5067093;28;20058;-67
2023/09/26 05:21:52;;;;;;;11.43;6.00;;;;;;;14.09;100.00;101938.19;5060364;28;20052;-67
2023/09/26 05:24:40;;;;;;;10.07;5.38;;;;;;;14.14;100.00;101943.72;5050117;28;20492;-67
2023/09/26 05:27:28;;;;;;;10.43;5.78;;;;;;;14.18;100.00;101950.31;5074864;28;20049;-67
2023/09/26 05:30:16;;;;;;;9.45;5.25;;;;;;;14.24;100.00;101949.28;5051177;28;20073;-67
2023/09/26 05:33:04;;;;;;;11.90;6.10;;;;;;;14.28;100.00;101945.72;5074273;28;20040;-67
2023/09/26 05:35:55;;;;;;;13.00;6.18;;;;;;;14.24;100.00;101949.28;5037409;28;20059;-67
2023/09/26 05:38:43;;;;;;;15.00;6.40;;;;;;;14.20;100.00;101942.66;4332714;28;10000190;-66
2023/09/26 05:41:31;;;;;;;11.77;6.35;;;;;;;14.17;100.00;101943.19;5050186;28;20114;-66
2023/09/26 05:44:19;;;;;;;14.90;6.60;;;;;;;14.17;100.00;101944.03;5062060;28;20059;-66
2023/09/26 05:47:07;;;;;;;12.05;6.57;;;;;;;14.19;100.00;101946.47;5035918;28;20055;-69
2023/09/26 05:49:55;;;;;;;11.75;6.75;;;;;;;14.17;100.00;101938.53;5037648;28;20075;-66
2023/09/26 05:52:43;;;;;;;12.82;6.22;;;;;;;14.14;100.00;101938.22;5062633;28;20099;-66
2023/09/26 05:55:32;;;;;;;12.52;6.43;;;;;;;14.13;100.00;101947.56;5071899;28;20534;-67
2023/09/26 05:58:20;;;;;;;14.13;6.70;;;;;;;14.15;100.00;101951.69;5028549;28;20423;-67
2023/09/26 06:01:08;;;;;;;12.00;6.53;;;;;;;14.20;100.00;101964.59;5036759;28;20048;-67
2023/09/26 06:03:57;;;;;;;16.92;6.45;;;;;;;14.23;100.00;101958.56;5051299;28;20044;-67
2023/09/26 06:06:45;;;;;;;12.77;6.15;;;;;;;14.26;100.00;101955.28;5046975;28;20131;-67
2023/09/26 06:09:33;;;;;;;10.73;6.20;;;;;;;14.30;100.00;101953.69;5033273;28;20179;-67
2023/09/26 06:12:21;;;;;;;12.30;6.05;;;;;;;14.30;100.00;101959.16;5058628;28;20040;-68
2023/09/26 06:15:09;;;;;;;11.90;6.35;;;;;;;14.32;100.00;101959.72;5070582;28;20444;-68
2023/09/26 06:17:59;;;;;;;16.33;6.55;;;;;;;14.35;100.00;101961.94;5055967;28;20049;-68
2023/09/26 06:20:47;;;;;;;13.18;5.97;;;;;;;14.39;100.00;101954.84;5048852;28;20063;-68
2023/09/26 06:23:36;;;;;;;12.40;6.00;;;;;;;14.42;100.00;101958.97;5070754;28;20133;-69
2023/09/26 06:26:24;;;;;;;11.35;5.90;;;;;;;14.44;100.00;101962.25;5070239;28;20066;-67
2023/09/26 06:29:12;;;;;;;9.00;6.00;;;;;;;14.44;100.00;101965.00;5070390;28;20056;-67
2023/09/26 06:32:00;;;;;;;17.33;6.68;;;;;;;14.42;100.00;101957.03;5070845;28;20067;-67
2023/09/26 06:34:49;;;;;;;9.93;5.50;;;;;;;14.42;100.00;101951.56;5058613;28;20532;-66
2023/09/26 06:37:40;;;;;;;10.57;6.15;;;;;;;14.41;100.00;101949.91;5073137;28;20047;-67
2023/09/26 06:40:28;;;;;;;12.27;5.75;;;;;;;14.44;100.00;101937.59;5052614;28;20493;-66
2023/09/26 06:43:16;;;;;;;14.98;6.72;;;;;;;14.45;100.00;101940.03;5070193;28;20116;-65
2023/09/26 06:46:06;;;;;;;11.88;6.70;;;;;;;14.41;100.00;101936.19;5057298;28;20045;-67
2023/09/26 06:48:55;;;;;;;14.68;7.53;;;;;;;14.40;100.00;101942.75;5044474;28;20053;-65
2023/09/26 06:51:43;;;;;;;11.77;6.68;;;;;;;14.43;100.00;101945.00;5071380;28;20063;-66
2023/09/26 06:54:31;;;;;;;14.48;6.90;;;;;;;14.45;100.00;101945.53;5074514;28;20483;-68
2023/09/26 06:57:26;;;;;;;12.32;6.65;;;;;;;14.47;100.00;101946.09;5072794;28;20059;-66
2023/09/26 07:00:16;;;;;;;12.20;6.63;;;;;;;14.52;100.00;101956.25;5071348;28;20041;-66
2023/09/26 07:03:05;;;;;;;11.48;5.50;;;;;;;14.58;100.00;101954.41;5070333;28;20043;-67
2023/09/26 07:05:57;;;;;;;10.63;5.90;;;;;;;14.62;100.00;101958.25;5045897;28;20546;-66
2023/09/26 07:08:45;;;;;;;10.07;5.85;;;;;;;14.64;100.00;101948.66;5044043;28;20037;-68
2023/09/26 07:11:33;;;;;;;11.18;5.90;;;;;;;14.69;100.00;101950.59;5053994;28;20046;-66
2023/09/26 07:14:21;;;;;;;13.93;6.30;;;;;;;14.71;100.00;101948.44;5057048;28;20119;-67
2023/09/26 07:17:09;;;;;;;12.35;5.47;;;;;;;14.74;100.00;101950.63;5072174;28;20087;-67
2023/09/26 07:20:00;;;;;;;12.68;6.25;;;;;;;14.77;100.00;101961.09;5065071;28;20151;-67
2023/09/26 07:22:49;;;;;;;11.85;5.72;;;;;;;14.80;100.00;101959.72;5073256;28;20055;-67
2023/09/26 07:25:37;;;;;;;12.90;5.78;;;;;;;14.81;100.00;101947.63;5072531;28;20121;-66
2023/09/26 07:28:26;;;;;;;10.35;5.57;;;;;;;14.83;100.00;101951.75;5041308;28;20531;-66
2023/09/26 07:31:15;;;;;;;13.65;6.22;;;;;;;14.84;100.00;101956.19;5067885;28;20033;-67
2023/09/26 07:34:04;;;;;;;23.33;9.38;;;;;;;14.85;100.00;101952.31;5052355;28;20400;-66
2023/09/26 07:36:52;;;;;;;15.50;7.00;;;;;;;14.87;100.00;101950.13;5064148;28;20045;-66
2023/09/26 07:39:44;;;;;;;11.95;6.00;;;;;;;14.89;100.00;101953.44;5064151;28;20083;-67
2023/09/26 07:42:33;;;;;;;14.32;6.35;;;;;;;14.92;100.00;101954.81;5059517;28;20040;-66
2023/09/26 07:45:21;;;;;;;13.93;6.60;;;;;;;14.94;100.00;101949.91;5073493;28;20060;-66
2023/09/26 07:48:09;;;;;;;13.40;6.38;;;;;;;14.96;100.00;101950.44;5059085;28;20049;-67
2023/09/26 07:50:57;;;;;;;12.70;6.55;;;;;;;14.98;100.00;101952.91;5059779;28;20063;-66
2023/09/26 07:53:45;;;;;;;13.50;6.57;;;;;;;14.95;100.00;101947.97;5063225;28;20104;-67
2023/09/26 07:56:33;;;;;;;11.95;6.53;;;;;;;14.98;100.00;101955.66;5073032;28;20060;-67
2023/09/26 07:59:22;;;;;;;16.55;6.60;;;;;;;15.01;100.00;101957.84;5069142;28;21894;-67
2023/09/26 08:02:10;;;;;;;12.93;6.90;;;;;;;15.02;100.00;101948.53;5053501;28;20124;-66
2023/09/26 08:04:58;;;;;;;15.13;6.60;;;;;;;15.00;100.00;101939.75;5060957;28;20052;-66
2023/09/26 08:07:48;;;;;;;13.43;6.65;;;;;;;15.02;100.00;101940.31;5071786;28;20046;-66
2023/09/26 08:10:39;;;;;;;11.25;5.88;;;;;;;15.06;100.00;101949.66;5031381;28;20515;-67
2023/09/26 08:13:27;;;;;;;14.02;6.13;;;;;;;15.10;100.00;101954.34;5067039;28;20041;-67
2023/09/26 08:16:15;;;;;;;10.88;5.97;;;;;;;15.15;100.00;101944.44;5057120;28;20051;-66
2023/09/26 08:19:03;;;;;;;11.50;6.55;;;;;;;15.18;100.00;101957.66;5057217;28;20051;-67
2023/09/26 08:21:52;;;;;;;13.07;6.93;;;;;;;15.20;100.00;101948.03;5069368;28;20057;-67
2023/09/26 08:24:40;;;;;;;11.68;6.68;;;;;;;15.23;100.00;101943.94;5068772;28;20751;-66
2023/09/26 08:27:28;;;;;;;10.82;6.13;;;;;;;15.25;100.00;101942.56;5043362;28;20137;-68
2023/09/26 08:30:15;;;;;;;14.25;6.82;;;;;;;15.28;100.00;101931.03;5070935;28;20036;-67
2023/09/26 08:33:04;;;;;;;14.88;7.00;;;;;;;15.30;100.00;101926.09;5041201;28;20056;-66
2023/09/26 08:35:52;;;;;;;13.65;6.88;;;;;;;15.34;100.00;101918.09;4718672;28;10001154;-66
2023/09/26 08:38:40;;;;;;;13.13;6.47;;;;;;;15.37;100.00;101922.22;5028880;28;20076;-67
2023/09/26 08:41:28;;;;;;;10.98;6.25;;;;;;;15.42;100.00;101920.34;5065375;28;20131;-67
2023/09/26 08:44:16;;;;;;;11.00;5.55;;;;;;;15.45;100.00;101919.78;5052716;28;20131;-67
2023/09/26 08:47:04;;;;;;;13.77;6.22;;;;;;;15.49;100.00;101917.28;5054209;28;20524;-67
2023/09/26 08:49:54;;;;;;;9.60;5.88;;;;;;;15.53;100.00;101916.47;5044303;28;20049;-67
2023/09/26 08:52:42;;;;;;;10.70;6.57;;;;;;;15.57;100.00;101911.28;5076972;28;20048;-67
2023/09/26 08:55:31;;;;;;;11.85;6.35;;;;;;;15.61;100.00;101920.63;5039157;28;20052;-67
2023/09/26 08:58:20;;;;;;;11.25;7.13;;;;;;;15.67;100.00;101922.25;5047955;28;20057;-67
2023/09/26 09:01:09;;;;;;;10.40;6.55;;;;;;;15.71;100.00;101917.88;5044215;28;20079;-68
2023/09/26 09:03:57;;;;;;;11.68;5.80;;;;;;;15.76;100.00;101920.63;5038906;28;20412;-67
2023/09/26 09:06:45;;;;;;;11.25;5.97;;;;;;;15.82;100.00;101928.88;5038133;28;20119;-66
2023/09/26 09:09:34;;;;;;;11.23;6.53;;;;;;;15.86;100.00;101925.28;5048347;28;20051;-68
2023/09/26 09:12:22;;;;;;;13.23;6.18;;;;;;;15.90;100.00;101920.91;5072459;28;20416;-66
2023/09/26 09:15:20;;;;;;;12.73;6.38;;;;;;;15.95;100.00;101917.31;5073376;28;20416;-66
2023/09/26 09:18:08;;;;;;;10.98;6.03;;;;;;;16.01;100.00;101921.69;5048476;28;20044;-67
2023/09/26 09:20:56;;;;;;;11.23;6.10;;;;;;;16.06;100.00;101907.09;5058932;28;20040;-67
2023/09/26 09:23:48;;;;;;;12.13;6.30;;;;;;;16.10;100.00;101909.03;5059055;28;20098;-67
2023/09/26 09:26:37;;;;;;;11.43;5.43;;;;;;;16.17;100.00;101920.56;5030160;28;20420;-67
2023/09/26 09:29:25;;;;;;;11.32;6.40;;;;;;;16.23;100.00;101917.78;5056559;28;20127;-67
2023/09/26 09:32:13;;;;;;;10.13;6.55;;;;;;;16.27;100.00;101910.63;5057311;28;20052;-67
2023/09/26 09:35:02;;;;;;;13.68;6.72;;;;;;;16.32;100.00;101916.13;5061266;28;20133;-67
2023/09/26 09:37:50;;;;;;;15.35;6.90;;;;;;;16.37;100.00;101916.91;5076444;28;20078;-67
2023/09/26 09:40:39;;;;;;;12.02;6.07;;;;;;;16.44;100.00;101918.56;5075112;28;20119;-67
2023/09/26 09:43:27;;;;;;;12.32;7.35;;;;;;;16.48;100.00;101909.47;5076414;28;20492;-67
2023/09/26 09:46:16;;;;;;;12.52;7.18;;;;;;;16.52;100.00;101910.53;5075233;28;20047;-66
2023/09/26 09:49:10;;;;;;;14.85;6.63;;;;;;;16.55;100.00;101907.22;5074715;28;20076;-67
2023/09/26 09:52:06;;;;;;;11.85;7.30;;;;;;;16.58;100.00;101901.16;5060440;28;20182;-67
2023/09/26 09:54:57;;;;;;;12.18;6.78;;;;;;;16.64;100.00;101892.88;5074245;28;20045;-67
2023/09/26 09:57:49;;;;;;;12.18;5.80;;;;;;;16.73;100.00;101899.44;4346755;28;10000597;-68
2023/09/26 10:00:39;;;;;;;13.82;7.70;;;;;;;16.78;100.00;101893.91;5067904;28;20500;-67
2023/09/26 10:03:28;;;;;;;14.00;7.53;;;;;;;16.81;100.00;101874.09;5070005;28;20063;-67
2023/09/26 10:06:17;;;;;;;13.27;7.55;;;;;;;16.90;100.00;101883.41;5054143;28;20040;-67
2023/09/26 10:09:06;;;;;;;13.80;8.05;;;;;;;17.00;100.00;101883.38;5037421;28;20584;-66
2023/09/26 10:11:55;;;;;;;14.52;7.80;;;;;;;17.06;100.00;101880.56;5036767;28;20068;-66
2023/09/26 10:14:43;;;;;;;16.15;8.10;;;;;;;17.03;100.00;101877.28;5042534;28;20041;-66
2023/09/26 10:17:32;;;;;;;14.35;7.70;;;;;;;17.07;100.00;101876.69;5056471;28;20630;-67
2023/09/26 10:20:20;;;;;;;13.32;8.10;;;;;;;17.09;100.00;101880.00;5070305;28;20041;-67
2023/09/26 10:23:28;;;;;;;14.05;7.30;;;;;;;17.11;100.00;101883.28;5030897;28;20056;-66
2023/09/26 10:26:18;;;;;;;12.52;6.63;;;;;;;17.13;100.00;101886.56;5069387;28;20049;-66
2023/09/26 10:29:27;;;;;;;13.50;7.15;;;;;;;17.14;100.00;101894.53;5070925;28;20389;-66
2023/09/26 10:32:32;;;;;;;10.77;6.85;;;;;;;17.12;100.00;101896.75;5069974;28;20469;-67
2023/09/26 10:35:20;;;;;;;10.90;6.80;;;;;;;17.16;100.00;101888.75;5055059;28;20443;-68
2023/09/26 10:38:18;;;;;;;14.70;7.72;;;;;;;17.18;100.00;101884.59;5055962;28;20508;-67
2023/09/26 10:41:09;;;;;;;14.05;7.63;;;;;;;17.19;100.00;101885.41;5055933;28;20818;-67
2023/09/26 10:43:57;;;;;;;10.45;6.10;;;;;;;17.20;100.00;101876.88;5070659;28;20051;-66
2023/09/26 10:46:48;;;;;;;11.07;6.82;;;;;;;17.24;100.00;101875.19;5064541;28;20056;-67
2023/09/26 10:49:36;;;;;;;10.82;7.05;;;;;;;17.31;100.00;101866.59;5070825;28;20055;-67
2023/09/26 10:52:25;;;;;;;17.58;7.20;;;;;;;17.35;100.00;101862.16;5039741;28;20503;-66
2023/09/26 10:55:17;;;;;;;9.75;6.60;;;;;;;17.41;100.00;101861.00;5053074;28;20119;-66
2023/09/26 10:58:26;;;;;;;13.73;6.80;;;;;;;17.46;100.00;101869.22;5053311;28;20068;-67
2023/09/26 11:01:14;;;;;;;13.45;7.63;;;;;;;17.48;100.00;101879.94;5054707;28;20045;-67
2023/09/26 11:04:02;;;;;;;14.30;7.57;;;;;;;17.47;100.00;101878.31;5054096;28;20041;-67
2023/09/26 11:06:51;;;;;;;11.73;6.90;;;;;;;17.48;100.00;101887.41;5061827;28;20416;-67
2023/09/26 11:09:41;;;;;;;11.40;6.88;;;;;;;17.50;100.00;101880.47;5034959;28;20053;-67
2023/09/26 11:12:30;;;;;;;12.02;6.68;;;;;;;17.52;100.00;101867.25;5040887;28;20052;-67
2023/09/26 11:15:18;;;;;;;11.75;6.95;;;;;;;17.55;100.00;101860.31;5077607;28;20040;-67
2023/09/26 11:18:12;;;;;;;11.45;6.53;;;;;;;17.65;100.00;101866.59;5078476;28;20047;-66
2023/09/26 11:21:00;;;;;;;12.73;5.75;;;;;;;17.68;100.00;101877.03;5059078;28;20558;-66
2023/09/26 11:24:27;;;;;;;11.43;5.57;;;;;;;17.69;100.00;101877.84;5067894;28;20051;-67
2023/09/26 11:27:15;;;;;;;13.38;6.47;;;;;;;17.70;100.00;101873.94;5078582;28;20093;-67
2023/09/26 11:30:04;;;;;;;9.52;5.57;;;;;;;17.70;100.00;101868.44;5083912;28;20510;-66
2023/09/26 11:32:54;;;;;;;10.65;5.25;;;;;;;17.70;100.00;101865.69;5058609;28;20408;-66
2023/09/26 11:35:43;;;;;;;13.83;6.97;;;;;;;17.71;100.00;101856.31;4701353;28;10000736;-66
2023/09/26 11:38:31;;;;;;;10.25;5.97;;;;;;;17.72;100.00;101849.69;5051365;28;20048;-66
2023/09/26 11:41:20;;;;;;;10.98;5.65;;;;;;;17.73;100.00;101854.09;5054258;28;20045;-66
2023/09/26 11:44:18;;;;;;;11.25;5.95;;;;;;;17.76;100.00;101860.97;5055045;28;20059;-67
2023/09/26 11:47:08;;;;;;;11.90;5.97;;;;;;;17.80;100.00;101862.88;5052628;28;20484;-67
2023/09/26 11:49:56;;;;;;;14.15;6.45;;;;;;;17.84;100.00;101852.88;5068222;28;20059;-67
2023/09/26 11:52:44;;;;;;;10.50;6.03;;;;;;;17.88;100.00;101847.63;5074520;28;20052;-67
2023/09/26 11:55:35;;;;;;;12.10;6.00;;;;;;;17.93;100.00;101844.00;5054202;28;20048;-67
2023/09/26 11:58:23;;;;;;;12.90;6.03;;;;;;;17.96;100.00;101848.91;5065694;28;20182;-67
2023/09/26 12:01:11;;;;;;;10.25;5.32;;;;;;;17.99;100.00;101851.09;5069489;28;20141;-68
2023/09/26 12:04:06;;;;;;;8.55;5.03;;;;;;;18.04;100.00;101851.88;5053091;28;20203;-66
2023/09/26 12:06:54;;;;;;;12.05;5.28;;;;;;;18.14;99.62;101839.88;5026635;28;20037;-67
2023/09/26 12:09:44;;;;;;;8.88;4.32;;;;;;;18.22;97.25;101842.00;5067502;28;20185;-67
2023/09/26 12:12:32;;;;;;;8.23;4.07;;;;;;;18.26;95.31;101829.25;5065864;28;20059;-67
2023/09/26 12:15:22;;;;;;;8.10;3.45;;;;;;;18.27;95.43;101833.63;5066158;28;20511;-67
2023/09/26 12:18:10;;;;;;;10.93;4.90;;;;;;;18.28;95.90;101828.97;5052052;28;20097;-66
2023/09/26 12:21:00;;;;;;;7.90;3.90;;;;;;;18.30;95.86;101826.72;5067855;28;20044;-66
2023/09/26 12:23:48;;;;;;;10.23;3.97;;;;;;;18.35;94.55;101818.38;5054204;28;20135;-66
2023/09/26 12:26:38;;;;;;;8.63;3.80;;;;;;;18.38;94.16;101816.97;5069128;28;20429;-67
2023/09/26 12:29:26;;;;;;;7.18;3.85;;;;;;;18.41;93.56;101819.13;5054286;28;20137;-67
2023/09/26 12:32:14;;;;;;;6.40;3.78;;;;;;;18.44;93.24;101818.53;5053806;28;20047;-67
2023/09/26 12:35:03;;;;;;;8.73;4.10;;;;;;;18.49;93.35;101818.47;5041524;28;20091;-68
2023/09/26 12:37:52;;;;;;;8.00;4.20;;;;;;;18.52;92.41;101804.09;5054200;28;20135;-67
2023/09/26 12:40:41;;;;;;;7.88;4.07;;;;;;;18.56;92.21;101813.38;5040826;28;20555;-67
2023/09/26 12:43:29;;;;;;;9.68;4.30;;;;;;;18.63;91.32;101813.03;5069794;28;20049;-66
2023/09/26 12:46:17;;;;;;;8.85;4.03;;;;;;;18.69;90.56;101814.59;5069478;28;20036;-67
2023/09/26 12:49:05;;;;;;;9.38;4.93;;;;;;;18.77;91.58;101804.84;5068099;28;20051;-66
2023/09/26 12:51:54;;;;;;;8.38;4.10;;;;;;;18.78;92.05;101807.28;5040735;28;20044;-67